Terminal Aerodrome Forecast
Issued by NWS Charleston, WV

Current Version | Previous Version | Graphics & Text | Print | Product List | Glossary On
Versions: 1 2 3 4 5 6 7 8 9 10 11 12 13 14 15 16 17 18 19 20
000
FTUS41 KRLX 250200 AAA
TAFCRW
TAF AMD
KCRW 250246Z 2503/2524 24014G28KT P6SM OVC020
     FM251600 25010G15KT P6SM OVC035
     FM252200 24006KT P6SM BKN040=

USA.gov is the U.S. government's official web portal to all federal, state and local government web resources and services.